| time (UTC) | temp C | wind direction | speed KPH | gust KPH | rain 1hr cm | rain 24hr cm | rain mn cm | humidity % | barometer mb |
| 20260505184910 | 21 | 19 | 1.6 | 8.0 | 0.00 | 0.00 | 0.00 | 35 | 1011.6 |
| 20260505184407 | 21 | 20 | 1.6 | 8.0 | 0.00 | 0.00 | 0.00 | 38 | 1011.7 |
| 20260505183904 | 21 | 307 | 3.2 | 4.8 | 0.00 | 0.00 | 0.00 | 37 | 1011.7 |
| 20260505183401 | 21 | 19 | 4.8 | 9.7 | 0.00 | 0.00 | 0.00 | 40 | 1011.8 |
| 20260505182858 | 21 | 347 | 4.8 | 14.5 | 0.00 | 0.00 | 0.00 | 34 | 1011.9 |
| 20260505182355 | 21 | 42 | 0.0 | 4.8 | 0.00 | 0.00 | 0.00 | 42 | 1011.8 |
| 20260505181851 | 21 | 72 | 0.0 | 1.6 | 0.00 | 0.00 | 0.00 | 36 | 1011.9 |
| 20260505181348 | 20 | 338 | 3.2 | 9.7 | 0.00 | 0.00 | 0.00 | 35 | 1011.9 |
| 20260505180845 | 21 | 285 | 4.8 | 8.0 | 0.00 | 0.00 | 0.00 | 36 | 1011.9 |
| 20260505180341 | 20 | 292 | 6.4 | 8.0 | 0.00 | 0.00 | 0.00 | 36 | 1011.9 |
| 20260505175838 | 20 | 295 | 3.2 | 8.0 | 0.00 | 0.00 | 0.00 | 38 | 1012.2 |
| 20260505175334 | 20 | 279 | 3.2 | 8.0 | 0.00 | 0.00 | 0.00 | 36 | 1012.2 |
| 20260505174831 | 20 | 288 | 0.0 | 3.2 | 0.00 | 0.00 | 0.00 | 38 | 1011.8 |
| 20260505174329 | 20 | 51 | 0.0 | 8.0 | 0.00 | 0.00 | 0.00 | 37 | 1012.1 |
| 20260505173824 | 20 | 76 | 0.0 | 3.2 | 0.00 | 0.00 | 0.00 | 37 | 1012.2 |
| 20260505173321 | 19 | 267 | 0.0 | 3.2 | 0.00 | 0.00 | 0.00 | 37 | 1012.3 |
| 20260505172818 | 18 | 256 | 0.0 | 3.2 | 0.00 | 0.00 | 0.00 | 37 | 1012.3 |
| 20260505172315 | 19 | 314 | 4.8 | 9.7 | 0.00 | 0.00 | 0.00 | 37 | 1012.1 |
| 20260505171810 | 19 | 294 | 6.4 | 12.9 | 0.00 | 0.00 | 0.00 | 37 | 1012.1 |
| 20260505171307 | 19 | 168 | 1.6 | 8.0 | 0.00 | 0.00 | 0.00 | 38 | 1011.9 |
| 20260505170803 | 19 | 101 | 0.0 | 0.0 | 0.00 | 0.00 | 0.00 | 37 | 1012.1 |
| 20260505170300 | 18 | 76 | 0.0 | 3.2 | 0.00 | 0.00 | 0.00 | 37 | 1011.7 |
| 20260505165755 | 18 | 273 | 0.0 | 3.2 | 0.00 | 0.00 | 0.00 | 38 | 1011.8 |
| 20260505165252 | 18 | 356 | 3.2 | 4.8 | 0.00 | 0.00 | 0.00 | 42 | 1012.3 |
| 20260505164748 | 18 | 236 | 4.8 | 9.7 | 0.00 | 0.00 | 0.00 | 39 | 1011.9 |
| 20260505164245 | 18 | 236 | 3.2 | 8.0 | 0.00 | 0.00 | 0.00 | 38 | 1012.1 |
| 20260505163743 | 17 | 271 | 4.8 | 12.9 | 0.00 | 0.00 | 0.00 | 39 | 1011.9 |
| 20260505163241 | 18 | 246 | 3.2 | 3.2 | 0.00 | 0.00 | 0.00 | 39 | 1012.2 |
| 20260505162739 | 17 | 198 | 8.0 | 14.5 | 0.00 | 0.00 | 0.00 | 40 | 1012.1 |
| 20260505162235 | 17 | 155 | 4.8 | 9.7 | 0.00 | 0.00 | 0.00 | 39 | 1011.7 |
| 20260505161732 | 17 | 206 | 4.8 | 9.7 | 0.00 | 0.00 | 0.00 | 40 | 1011.9 |
| 20260505161230 | 17 | 225 | 6.4 | 11.3 | 0.00 | 0.00 | 0.00 | 39 | 1011.7 |
| 20260505160727 | 17 | 111 | 4.8 | 12.9 | 0.00 | 0.00 | 0.00 | 41 | 1011.9 |
| 20260505160225 | 17 | 209 | 6.4 | 11.3 | 0.00 | 0.00 | 0.00 | 40 | 1011.6 |
| 20260505153204 | 17 | 97 | 0.0 | 1.6 | 0.00 | 0.00 | 0.00 | 45 | 1011.4 |
| 20260505152700 | 17 | 186 | 1.6 | 8.0 | 0.00 | 0.00 | 0.00 | 43 | 1011.4 |
| 20260505152156 | 17 | 185 | 4.8 | 4.8 | 0.00 | 0.00 | 0.00 | 45 | 1011.5 |
| 20260505151652 | 16 | 220 | 4.8 | 4.8 | 0.00 | 0.00 | 0.00 | 46 | 1011.4 |
| 20260505151149 | 16 | 19 | 0.0 | 3.2 | 0.00 | 0.00 | 0.00 | 47 | 1011.4 |
| 20260505150645 | 16 | 96 | 1.6 | 3.2 | 0.00 | 0.00 | 0.00 | 51 | 1011.5 |
| 20260505150143 | 16 | 96 | 0.0 | 0.0 | 0.00 | 0.00 | 0.00 | 54 | 1011.7 |
| 20260505140611 | 10 | 58 | 0.0 | 0.0 | 0.00 | 0.00 | 0.00 | 72 | 1011.0 |
| 20260505140108 | 10 | 58 | 0.0 | 0.0 | 0.00 | 0.00 | 0.00 | 73 | 1011.0 |
| 20260505125024 | 9 | 77 | 0.0 | 0.0 | 0.00 | 0.00 | 0.00 | 73 | 1009.8 |
| 20260505124521 | 9 | 55 | 0.0 | 0.0 | 0.00 | 0.00 | 0.00 | 73 | 1009.7 |
| 20260505124017 | 9 | 58 | 0.0 | 0.0 | 0.00 | 0.00 | 0.00 | 72 | 1009.6 |
| 20260505123514 | 10 | 58 | 0.0 | 0.0 | 0.00 | 0.00 | 0.00 | 71 | 1009.7 |
| 20260505123010 | 10 | 60 | 0.0 | 0.0 | 0.00 | 0.00 | 0.00 | 71 | 1009.3 |
| 20260505122507 | 10 | 65 | 0.0 | 1.6 | 0.00 | 0.00 | 0.00 | 71 | 1009.3 |
| 20260505122004 | 10 | 59 | 0.0 | 0.0 | 0.00 | 0.00 | 0.00 | 71 | 1009.3 |
| 20260505121501 | 10 | 62 | 0.0 | 0.0 | 0.00 | 0.00 | 0.00 | 70 | 1009.0 |
| 20260505120957 | 10 | 57 | 0.0 | 0.0 | 0.00 | 0.00 | 0.00 | 69 | 1009.0 |
| 20260505120453 | 10 | 55 | 0.0 | 1.6 | 0.00 | 0.00 | 0.00 | 69 | 1008.9 |
| 20260505115952 | 10 | 61 | 0.0 | 0.0 | 0.00 | 0.00 | 0.00 | 69 | 1009.0 |
| 20260505115449 | 10 | 159 | 0.0 | 1.6 | 0.00 | 0.00 | 0.00 | 70 | 1008.7 |
| 20260505114947 | 10 | 86 | 0.0 | 0.0 | 0.00 | 0.00 | 0.00 | 70 | 1008.7 |
| 20260505114443 | 10 | 60 | 0.0 | 0.0 | 0.00 | 0.00 | 0.00 | 69 | 1008.6 |
| 20260505113940 | 10 | 59 | 0.0 | 0.0 | 0.00 | 0.00 | 0.00 | 69 | 1008.4 |
| 20260505113436 | 10 | 57 | 0.0 | 0.0 | 0.00 | 0.00 | 0.00 | 68 | 1008.6 |
| 20260505112932 | 10 | 61 | 0.0 | 0.0 | 0.00 | 0.00 | 0.00 | 67 | 1008.6 |
| 20260505112430 | 10 | 65 | 0.0 | 0.0 | 0.00 | 0.00 | 0.00 | 66 | 1008.3 |
| 20260505111926 | 10 | 66 | 0.0 | 0.0 | 0.00 | 0.00 | 0.00 | 66 | 1008.1 |
| 20260505111421 | 10 | 64 | 0.0 | 0.0 | 0.00 | 0.00 | 0.00 | 66 | 1008.0 |
| 20260505110917 | 10 | 61 | 0.0 | 0.0 | 0.00 | 0.00 | 0.00 | 66 | 1008.0 |
| 20260505110414 | 10 | 61 | 0.0 | 1.6 | 0.00 | 0.00 | 0.00 | 66 | 1007.9 |
| 20260505101845 | 11 | 55 | 0.0 | 0.0 | 0.00 | 0.00 | 0.00 | 64 | 1007.4 |
| 20260505101340 | 11 | 63 | 0.0 | 0.0 | 0.00 | 0.00 | 0.00 | 63 | 1007.5 |
| 20260505100836 | 11 | 59 | 0.0 | 0.0 | 0.00 | 0.00 | 0.00 | 64 | 1007.2 |
| 20260505100333 | 11 | 60 | 0.0 | 0.0 | 0.00 | 0.00 | 0.00 | 63 | 1007.1 |
| 20260505095828 | 12 | 61 | 0.0 | 0.0 | 0.00 | 0.00 | 0.00 | 62 | 1007.0 |
| 20260505095326 | 12 | 71 | 0.0 | 0.0 | 0.00 | 0.00 | 0.00 | 61 | 1007.1 |
| 20260505094822 | 12 | 71 | 0.0 | 0.0 | 0.00 | 0.00 | 0.00 | 61 | 1006.7 |
| 20260505094319 | 12 | 70 | 0.0 | 0.0 | 0.00 | 0.00 | 0.00 | 61 | 1006.8 |
| 20260505093814 | 12 | 70 | 0.0 | 0.0 | 0.00 | 0.00 | 0.00 | 60 | 1007.0 |
| 20260505093312 | 12 | 63 | 0.0 | 0.0 | 0.00 | 0.00 | 0.00 | 59 | 1006.6 |
| 20260505092808 | 13 | 61 | 0.0 | 0.0 | 0.00 | 0.00 | 0.00 | 58 | 1006.7 |
| 20260505092307 | 13 | 84 | 0.0 | 3.2 | 0.00 | 0.00 | 0.00 | 57 | 1006.5 |
| 20260505091804 | 13 | 173 | 3.2 | 4.8 | 0.00 | 0.00 | 0.00 | 56 | 1006.4 |
| 20260505091303 | 13 | 182 | 3.2 | 4.8 | 0.00 | 0.00 | 0.00 | 55 | 1006.6 |
| 20260505090800 | 14 | 60 | 0.0 | 0.0 | 0.00 | 0.00 | 0.00 | 54 | 1006.6 |
| 20260505090258 | 14 | 181 | 3.2 | 8.0 | 0.00 | 0.00 | 0.00 | 52 | 1006.5 |
| 20260505085755 | 15 | 168 | 3.2 | 4.8 | 0.00 | 0.00 | 0.00 | 51 | 1006.2 |
| 20260505085253 | 15 | 202 | 1.6 | 4.8 | 0.00 | 0.00 | 0.00 | 52 | 1006.3 |
| 20260505084750 | 15 | 182 | 1.6 | 4.8 | 0.00 | 0.00 | 0.00 | 51 | 1006.1 |
| 20260505084249 | 15 | 212 | 1.6 | 3.2 | 0.00 | 0.00 | 0.00 | 51 | 1006.0 |
| 20260505083746 | 15 | 178 | 3.2 | 4.8 | 0.00 | 0.00 | 0.00 | 49 | 1006.0 |
| 20260505083242 | 15 | 204 | 4.8 | 8.0 | 0.00 | 0.00 | 0.00 | 50 | 1006.0 |
| 20260505082739 | 15 | 125 | 1.6 | 1.6 | 0.00 | 0.00 | 0.00 | 53 | 1005.9 |
| 20260505082236 | 14 | 197 | 1.6 | 4.8 | 0.00 | 0.00 | 0.00 | 53 | 1005.7 |
| 20260505081732 | 13 | 169 | 1.6 | 4.8 | 0.00 | 0.00 | 0.00 | 55 | 1006.0 |
| 20260505081229 | 13 | 69 | 0.0 | 0.0 | 0.00 | 0.00 | 0.00 | 55 | 1005.9 |
| 20260505080726 | 14 | 168 | 1.6 | 3.2 | 0.00 | 0.00 | 0.00 | 54 | 1005.7 |
| 20260505080221 | 14 | 78 | 0.0 | 0.0 | 0.00 | 0.00 | 0.00 | 53 | 1005.9 |
| 20260505075717 | 15 | 86 | 0.0 | 0.0 | 0.00 | 0.00 | 0.00 | 53 | 1005.5 |
| 20260505075215 | 15 | 69 | 0.0 | 0.0 | 0.00 | 0.00 | 0.00 | 50 | 1005.7 |
| 20260505074712 | 16 | 64 | 0.0 | 0.0 | 0.00 | 0.00 | 0.00 | 48 | 1005.8 |
| 20260505074209 | 16 | 29 | 0.0 | 0.0 | 0.00 | 0.00 | 0.00 | 45 | 1005.8 |
| 20260505073707 | 16 | 44 | 0.0 | 1.6 | 0.00 | 0.00 | 0.00 | 44 | 1005.8 |
| 20260505073205 | 16 | 317 | 1.6 | 4.8 | 0.00 | 0.00 | 0.00 | 44 | 1005.4 |
| 20260505072700 | 16 | 65 | 0.0 | 0.0 | 0.00 | 0.00 | 0.00 | 46 | 1005.4 |
| 20260505072156 | 17 | 82 | 1.6 | 1.6 | 0.00 | 0.00 | 0.00 | 42 | 1005.5 |
| 20260505071652 | 17 | 313 | 1.6 | 3.2 | 0.00 | 0.00 | 0.00 | 41 | 1005.4 |
| 20260505071150 | 16 | 41 | 0.0 | 0.0 | 0.00 | 0.00 | 0.00 | 46 | 1005.5 |
| 20260505070647 | 16 | 78 | 0.0 | 0.0 | 0.00 | 0.00 | 0.00 | 45 | 1005.7 |
| 20260505070143 | 16 | 133 | 0.0 | 1.6 | 0.00 | 0.00 | 0.00 | 45 | 1005.3 |
| 20260505065639 | 17 | 52 | 1.6 | 4.8 | 0.00 | 0.00 | 0.00 | 43 | 1005.1 |
| 20260505065136 | 16 | 217 | 1.6 | 3.2 | 0.00 | 0.00 | 0.00 | 44 | 1005.2 |
| 20260505064633 | 18 | 115 | 3.2 | 4.8 | 0.00 | 0.00 | 0.00 | 41 | 1005.2 |
| 20260505064131 | 18 | 35 | 0.0 | 0.0 | 0.00 | 0.00 | 0.00 | 40 | 1005.1 |
| 20260505063628 | 18 | 69 | 0.0 | 1.6 | 0.00 | 0.00 | 0.00 | 40 | 1005.3 |
| 20260505063124 | 18 | 61 | 1.6 | 3.2 | 0.00 | 0.00 | 0.00 | 39 | 1005.2 |
| 20260505062621 | 18 | 43 | 0.0 | 1.6 | 0.00 | 0.00 | 0.00 | 38 | 1005.3 |
| 20260505062118 | 18 | 45 | 0.0 | 1.6 | 0.00 | 0.00 | 0.00 | 38 | 1005.3 |
| 20260505061615 | 19 | 47 | 0.0 | 0.0 | 0.00 | 0.00 | 0.00 | 37 | 1005.0 |
| 20260505061113 | 19 | 356 | 0.0 | 0.0 | 0.00 | 0.00 | 0.00 | 36 | 1005.2 |
| 20260505060611 | 20 | 48 | 0.0 | 0.0 | 0.00 | 0.00 | 0.00 | 36 | 1005.0 |
| 20260505060107 | 20 | 20 | 3.2 | 4.8 | 0.00 | 0.00 | 0.00 | 35 | 1005.0 |
| 20260505055603 | 20 | 287 | 8.0 | 11.3 | 0.00 | 0.00 | 0.00 | 34 | 1005.2 |
| 20260505055059 | 20 | 292 | 4.8 | 12.9 | 0.00 | 0.00 | 0.00 | 35 | 1004.9 |
| 20260505054557 | 20 | 294 | 3.2 | 9.7 | 0.00 | 0.00 | 0.00 | 34 | 1005.0 |
| 20260505054055 | 20 | 299 | 6.4 | 9.7 | 0.00 | 0.00 | 0.00 | 34 | 1005.1 |
| 20260505053551 | 20 | 318 | 4.8 | 11.3 | 0.00 | 0.00 | 0.00 | 34 | 1005.0 |
| 20260505053048 | 20 | 309 | 3.2 | 8.0 | 0.00 | 0.00 | 0.00 | 33 | 1005.1 |
| 20260505052545 | 20 | 296 | 3.2 | 11.3 | 0.00 | 0.00 | 0.00 | 34 | 1005.0 |
| 20260505052043 | 20 | 327 | 4.8 | 8.0 | 0.00 | 0.00 | 0.00 | 33 | 1005.2 |
| 20260505051539 | 20 | 280 | 6.4 | 9.7 | 0.00 | 0.00 | 0.00 | 33 | 1005.1 |
| 20260505051038 | 20 | 312 | 0.0 | 8.0 | 0.00 | 0.00 | 0.00 | 34 | 1005.0 |
| 20260505050535 | 20 | 339 | 4.8 | 4.8 | 0.00 | 0.00 | 0.00 | 34 | 1004.9 |
| 20260505041503 | 20 | 16 | 0.0 | 3.2 | 0.00 | 0.00 | 0.00 | 33 | 1004.9 |
| 20260505041001 | 20 | 13 | 0.0 | 0.0 | 0.00 | 0.00 | 0.00 | 33 | 1004.9 |
| 20260505040458 | 21 | 6 | 1.6 | 4.8 | 0.00 | 0.00 | 0.00 | 32 | 1005.0 |
| 20260505035954 | 21 | 286 | 3.2 | 4.8 | 0.00 | 0.00 | 0.00 | 32 | 1004.8 |
| 20260505035450 | 21 | 347 | 4.8 | 4.8 | 0.00 | 0.00 | 0.00 | 32 | 1004.7 |
| 20260505034948 | 21 | 30 | 3.2 | 4.8 | 0.00 | 0.00 | 0.00 | 32 | 1004.7 |
| 20260505034444 | 21 | 13 | 0.0 | 8.0 | 0.00 | 0.00 | 0.00 | 32 | 1004.8 |
| 20260505033941 | 21 | 322 | 3.2 | 3.2 | 0.00 | 0.00 | 0.00 | 32 | 1004.5 |
| 20260505033438 | 21 | 328 | 0.0 | 4.8 | 0.00 | 0.00 | 0.00 | 31 | 1004.7 |
| 20260505032936 | 21 | 305 | 6.4 | 8.0 | 0.00 | 0.00 | 0.00 | 31 | 1004.7 |
| 20260505032433 | 22 | 317 | 4.8 | 8.0 | 0.00 | 0.00 | 0.00 | 31 | 1004.6 |
| 20260505031929 | 22 | 14 | 4.8 | 8.0 | 0.00 | 0.00 | 0.00 | 31 | 1004.6 |
| 20260505031427 | 22 | 29 | 3.2 | 8.0 | 0.00 | 0.00 | 0.00 | 31 | 1004.6 |
| 20260505030923 | 22 | 348 | 4.8 | 8.0 | 0.00 | 0.00 | 0.00 | 31 | 1004.5 |
| 20260505030419 | 22 | 17 | 1.6 | 3.2 | 0.00 | 0.00 | 0.00 | 31 | 1004.5 |
| 20260505025915 | 22 | 31 | 0.0 | 1.6 | 0.00 | 0.00 | 0.00 | 30 | 1004.4 |
| 20260505025412 | 22 | 9 | 1.6 | 1.6 | 0.00 | 0.00 | 0.00 | 30 | 1004.7 |
| 20260505024911 | 23 | 29 | 0.0 | 4.8 | 0.00 | 0.00 | 0.00 | 30 | 1004.4 |
| 20260505024408 | 23 | 36 | 0.0 | 4.8 | 0.00 | 0.00 | 0.00 | 30 | 1004.5 |
| 20260505023905 | 23 | 327 | 0.0 | 4.8 | 0.00 | 0.00 | 0.00 | 30 | 1004.4 |
| 20260505023402 | 24 | 107 | 0.0 | 0.0 | 0.00 | 0.00 | 0.00 | 29 | 1004.2 |
| 20260505022859 | 24 | 25 | 1.6 | 4.8 | 0.00 | 0.00 | 0.00 | 29 | 1004.2 |
| 20260505022356 | 25 | 82 | 4.8 | 8.0 | 0.00 | 0.00 | 0.00 | 28 | 1004.2 |
| 20260505021854 | 25 | 4 | 0.0 | 1.6 | 0.00 | 0.00 | 0.00 | 30 | 1004.2 |
| 20260505021350 | 25 | 35 | 0.0 | 3.2 | 0.00 | 0.00 | 0.00 | 30 | 1004.2 |
| 20260505020846 | 25 | 306 | 3.2 | 9.7 | 0.00 | 0.00 | 0.00 | 29 | 1004.2 |
| 20260505020342 | 25 | 21 | 0.0 | 11.3 | 0.00 | 0.00 | 0.00 | 29 | 1004.4 |
| 20260505015839 | 25 | 7 | 4.8 | 12.9 | 0.00 | 0.00 | 0.00 | 29 | 1004.2 |
| 20260505015336 | 25 | 37 | 4.8 | 4.8 | 0.00 | 0.00 | 0.00 | 28 | 1004.4 |
| 20260505014833 | 26 | 287 | 4.8 | 9.7 | 0.00 | 0.00 | 0.00 | 27 | 1004.4 |
| 20260505014330 | 26 | 280 | 6.4 | 11.3 | 0.00 | 0.00 | 0.00 | 27 | 1004.4 |
| 20260505013826 | 26 | 329 | 6.4 | 12.9 | 0.00 | 0.00 | 0.00 | 27 | 1004.2 |
| 20260505013324 | 26 | 12 | 3.2 | 12.9 | 0.00 | 0.00 | 0.00 | 27 | 1004.4 |
| 20260505012822 | 26 | 281 | 8.0 | 14.5 | 0.00 | 0.00 | 0.00 | 27 | 1004.4 |
| 20260505012320 | 26 | 330 | 3.2 | 9.7 | 0.00 | 0.00 | 0.00 | 26 | 1004.5 |
| 20260505011815 | 26 | 240 | 16.1 | 20.9 | 0.00 | 0.00 | 0.00 | 24 | 1004.4 |
| 20260505011312 | 26 | 32 | 4.8 | 16.1 | 0.00 | 0.00 | 0.00 | 26 | 1004.7 |
| 20260505010808 | 26 | 286 | 9.7 | 20.9 | 0.00 | 0.00 | 0.00 | 25 | 1004.6 |
| 20260505010304 | 27 | 310 | 9.7 | 12.9 | 0.00 | 0.00 | 0.00 | 24 | 1004.5 |
| 20260505005801 | 27 | 24 | 8.0 | 12.9 | 0.00 | 0.00 | 0.00 | 23 | 1004.6 |
| 20260505005258 | 27 | 296 | 9.7 | 17.7 | 0.00 | 0.00 | 0.00 | 23 | 1004.7 |
| 20260505004755 | 27 | 323 | 4.8 | 14.5 | 0.00 | 0.00 | 0.00 | 23 | 1004.7 |
| 20260505004251 | 27 | 266 | 3.2 | 16.1 | 0.00 | 0.00 | 0.00 | 21 | 1004.5 |
| 20260505003749 | 27 | 6 | 1.6 | 9.7 | 0.00 | 0.00 | 0.00 | 21 | 1004.8 |
| 20260505003246 | 27 | 279 | 8.0 | 11.3 | 0.00 | 0.00 | 0.00 | 21 | 1004.9 |
| 20260505002742 | 27 | 351 | 1.6 | 11.3 | 0.00 | 0.00 | 0.00 | 22 | 1004.9 |
| 20260505002240 | 27 | 288 | 1.6 | 16.1 | 0.00 | 0.00 | 0.00 | 22 | 1004.8 |
| 20260505001737 | 27 | 149 | 3.2 | 11.3 | 0.00 | 0.00 | 0.00 | 23 | 1004.8 |
| 20260505001235 | 27 | 1 | 6.4 | 9.7 | 0.00 | 0.00 | 0.00 | 22 | 1004.7 |
| 20260505000731 | 27 | 4 | 6.4 | 9.7 | 0.00 | 0.00 | 0.00 | 22 | 1004.8 |
| 20260505000229 | 27 | 295 | 0.0 | 8.0 | 0.00 | 0.00 | 0.00 | 23 | 1004.8 |
| 20260504235725 | 27 | 333 | 8.0 | 16.1 | 0.00 | 0.00 | 0.00 | 22 | 1005.0 |
| 20260504235222 | 27 | 305 | 8.0 | 11.3 | 0.00 | 0.00 | 0.00 | 22 | 1004.9 |
| 20260504234719 | 27 | 52 | 1.6 | 14.5 | 0.00 | 0.00 | 0.00 | 24 | 1005.1 |
| 20260504234216 | 27 | 323 | 9.7 | 14.5 | 0.00 | 0.00 | 0.00 | 24 | 1005.1 |
| 20260504233712 | 27 | 294 | 6.4 | 11.3 | 0.00 | 0.00 | 0.00 | 23 | 1005.0 |
| 20260504233208 | 27 | 309 | 9.7 | 22.5 | 0.00 | 0.00 | 0.00 | 24 | 1005.2 |
| 20260504232706 | 27 | 282 | 8.0 | 20.9 | 0.00 | 0.00 | 0.00 | 25 | 1005.1 |
| 20260504232203 | 27 | 31 | 3.2 | 17.7 | 0.00 | 0.00 | 0.00 | 27 | 1005.1 |
| 20260504231659 | 27 | 305 | 4.8 | 9.7 | 0.00 | 0.00 | 0.00 | 27 | 1005.1 |
| 20260504231156 | 27 | 296 | 12.9 | 20.9 | 0.00 | 0.00 | 0.00 | 27 | 1005.4 |
| 20260504230652 | 27 | 304 | 16.1 | 24.1 | 0.00 | 0.00 | 0.00 | 27 | 1005.4 |
| 20260504230151 | 27 | 319 | 1.6 | 12.9 | 0.00 | 0.00 | 0.00 | 27 | 1005.5 |
| 20260504225649 | 27 | 90 | 6.4 | 17.7 | 0.00 | 0.00 | 0.00 | 29 | 1005.3 |
| 20260504225144 | 27 | 118 | 1.6 | 12.9 | 0.00 | 0.00 | 0.00 | 28 | 1005.7 |
| 20260504224642 | 27 | 307 | 1.6 | 11.3 | 0.00 | 0.00 | 0.00 | 28 | 1005.5 |
| 20260504224138 | 27 | 263 | 3.2 | 11.3 | 0.00 | 0.00 | 0.00 | 27 | 1005.7 |
| 20260504223636 | 27 | 323 | 1.6 | 12.9 | 0.00 | 0.00 | 0.00 | 30 | 1005.8 |
| 20260504223131 | 26 | 325 | 9.7 | 16.1 | 0.00 | 0.00 | 0.00 | 28 | 1005.8 |
| 20260504222628 | 26 | 295 | 9.7 | 16.1 | 0.00 | 0.00 | 0.00 | 28 | 1005.9 |
| 20260504222125 | 26 | 18 | 4.8 | 14.5 | 0.00 | 0.00 | 0.00 | 31 | 1006.0 |
| 20260504221623 | 26 | 252 | 6.4 | 14.5 | 0.00 | 0.00 | 0.00 | 28 | 1006.1 |
| 20260504221120 | 26 | 250 | 3.2 | 12.9 | 0.00 | 0.00 | 0.00 | 28 | 1006.1 |
| 20260504220616 | 26 | 250 | 8.0 | 11.3 | 0.00 | 0.00 | 0.00 | 28 | 1006.1 |
| 20260504220114 | 27 | 266 | 11.3 | 16.1 | 0.00 | 0.00 | 0.00 | 27 | 1006.2 |
| 20260504215609 | 26 | 273 | 11.3 | 12.9 | 0.00 | 0.00 | 0.00 | 28 | 1006.3 |
| 20260504215107 | 26 | 297 | 4.8 | 9.7 | 0.00 | 0.00 | 0.00 | 31 | 1006.6 |
| 20260504214603 | 26 | 308 | 3.2 | 9.7 | 0.00 | 0.00 | 0.00 | 31 | 1006.4 |
| 20260504214059 | 26 | 328 | 4.8 | 12.9 | 0.00 | 0.00 | 0.00 | 31 | 1006.6 |
| 20260504213556 | 26 | 293 | 8.0 | 9.7 | 0.00 | 0.00 | 0.00 | 29 | 1006.7 |
| 20260504213053 | 26 | 275 | 4.8 | 14.5 | 0.00 | 0.00 | 0.00 | 30 | 1006.6 |
| 20260504212549 | 25 | 356 | 4.8 | 9.7 | 0.00 | 0.00 | 0.00 | 32 | 1006.7 |
| 20260504212046 | 26 | 323 | 11.3 | 16.1 | 0.00 | 0.00 | 0.00 | 32 | 1007.1 |
| 20260504211543 | 26 | 346 | 0.0 | 11.3 | 0.00 | 0.00 | 0.00 | 33 | 1006.8 |
| 20260504211040 | 25 | 287 | 4.8 | 11.3 | 0.00 | 0.00 | 0.00 | 34 | 1007.2 |
| 20260504210537 | 25 | 300 | 11.3 | 16.1 | 0.00 | 0.00 | 0.00 | 31 | 1007.4 |
| 20260504210034 | 26 | 315 | 8.0 | 12.9 | 0.00 | 0.00 | 0.00 | 35 | 1007.2 |
| 20260504205532 | 25 | 26 | 0.0 | 3.2 | 0.00 | 0.00 | 0.00 | 36 | 1007.3 |
| 20260504205029 | 25 | 292 | 9.7 | 12.9 | 0.00 | 0.00 | 0.00 | 33 | 1007.5 |
| 20260504204527 | 25 | 283 | 1.6 | 8.0 | 0.00 | 0.00 | 0.00 | 34 | 1007.5 |
| 20260504204026 | 25 | 335 | 1.6 | 11.3 | 0.00 | 0.00 | 0.00 | 35 | 1007.6 |
| 20260504203524 | 25 | 312 | 4.8 | 9.7 | 0.00 | 0.00 | 0.00 | 37 | 1007.5 |
| 20260504203021 | 25 | 37 | 1.6 | 4.8 | 0.00 | 0.00 | 0.00 | 38 | 1007.6 |
| 20260504202516 | 24 | 199 | 1.6 | 14.5 | 0.00 | 0.00 | 0.00 | 37 | 1007.7 |
| 20260504202013 | 24 | 332 | 6.4 | 8.0 | 0.00 | 0.00 | 0.00 | 36 | 1008.0 |
| 20260504201510 | 23 | 279 | 11.3 | 16.1 | 0.00 | 0.00 | 0.00 | 32 | 1007.7 |
| 20260504201008 | 24 | 311 | 6.4 | 16.1 | 0.00 | 0.00 | 0.00 | 35 | 1007.7 |
| 20260504200504 | 24 | 350 | 3.2 | 8.0 | 0.00 | 0.00 | 0.00 | 38 | 1007.9 |
| 20260504200001 | 24 | 265 | 11.3 | 12.9 | 0.00 | 0.00 | 0.00 | 32 | 1008.0 |
| 20260504195457 | 24 | 226 | 1.6 | 4.8 | 0.00 | 0.00 | 0.00 | 35 | 1008.0 |
| 20260504194954 | 24 | 340 | 4.8 | 9.7 | 0.00 | 0.00 | 0.00 | 34 | 1008.0 |
| 20260504194450 | 23 | 350 | 4.8 | 9.7 | 0.00 | 0.00 | 0.00 | 34 | 1008.1 |
| 20260504193946 | 24 | 197 | 9.7 | 9.7 | 0.00 | 0.00 | 0.00 | 34 | 1008.1 |
| 20260504193443 | 24 | 25 | 1.6 | 9.7 | 0.00 | 0.00 | 0.00 | 34 | 1008.3 |
| 20260504192942 | 23 | 105 | 1.6 | 8.0 | 0.00 | 0.00 | 0.00 | 34 | 1008.5 |
| 20260504192439 | 23 | 272 | 8.0 | 11.3 | 0.00 | 0.00 | 0.00 | 34 | 1008.5 |
| 20260504191938 | 23 | 334 | 0.0 | 8.0 | 0.00 | 0.00 | 0.00 | 39 | 1008.5 |
| 20260504191435 | 22 | 271 | 11.3 | 16.1 | 0.00 | 0.00 | 0.00 | 35 | 1008.5 |
| 20260504190930 | 22 | 287 | 4.8 | 11.3 | 0.00 | 0.00 | 0.00 | 34 | 1008.6 |
| 20260504190426 | 22 | 312 | 1.6 | 4.8 | 0.00 | 0.00 | 0.00 | 39 | 1008.7 |
| 20260504185923 | 23 | 268 | 3.2 | 9.7 | 0.00 | 0.00 | 0.00 | 35 | 1008.7 |
| 20260504185420 | 22 | 285 | 3.2 | 9.7 | 0.00 | 0.00 | 0.00 | 38 | 1008.7 |